createdAt,value
2023-05-01T00:01:27.491Z,7.34
2023-05-01T00:03:55.283Z,7.37
2023-05-01T00:06:23.732Z,7.38
2023-05-01T00:08:51.601Z,7.30
2023-05-01T00:11:19.303Z,7.41
2023-05-01T00:13:47.394Z,7.36
2023-05-01T00:16:16.874Z,7.39
2023-05-01T00:18:47.163Z,7.42
2023-05-01T00:21:14.866Z,7.46
2023-05-01T00:23:42.953Z,7.42
2023-05-01T00:26:10.675Z,7.44
2023-05-01T00:28:38.470Z,7.36
2023-05-01T00:31:06.586Z,7.38
2023-05-01T00:33:34.243Z,7.32
2023-05-01T00:36:03.381Z,7.31
2023-05-01T00:38:31.721Z,7.27
2023-05-01T00:40:59.367Z,7.24
2023-05-01T00:43:27.200Z,7.24
2023-05-01T00:45:55.367Z,7.26
2023-05-01T00:48:23.288Z,7.16
2023-05-01T00:50:52.056Z,7.09
2023-05-01T00:53:22.653Z,7.12
2023-05-01T00:55:50.228Z,7.10
2023-05-01T00:58:19.529Z,7.05
2023-05-01T01:00:48.396Z,7.08
2023-05-01T01:03:16.585Z,7.01
2023-05-01T01:05:51.215Z,7.01
2023-05-01T01:08:25.620Z,6.96
2023-05-01T01:10:58.430Z,6.97
2023-05-01T01:13:31.206Z,6.94
2023-05-01T01:16:09.531Z,6.94
2023-05-01T01:18:43.317Z,6.86
2023-05-01T01:21:18.449Z,6.79
2023-05-01T01:24:13.720Z,6.82
2023-05-01T01:27:13.278Z,6.69
2023-05-01T01:29:52.347Z,6.58
2023-05-01T01:33:06.051Z,6.51
2023-05-01T01:35:37.195Z,6.44
2023-05-01T01:38:11.830Z,6.45
2023-05-01T01:40:45.119Z,6.45
2023-05-01T01:43:18.070Z,6.43
2023-05-01T01:45:51.809Z,6.37
2023-05-01T01:48:25.867Z,6.37
2023-05-01T01:50:58.261Z,6.35
2023-05-01T01:53:28.340Z,6.36
2023-05-01T01:55:57.398Z,6.33
2023-05-01T01:58:29.385Z,6.43
2023-05-01T02:00:59.178Z,6.44
2023-05-01T02:03:27.915Z,6.40
2023-05-01T02:05:59.821Z,6.32
2023-05-01T02:08:31.836Z,6.20
2023-05-01T02:11:02.479Z,6.18
2023-05-01T02:13:30.537Z,6.10
2023-05-01T02:15:59.745Z,6.12
2023-05-01T02:18:30.457Z,6.12
2023-05-01T02:21:00.813Z,6.02
2023-05-01T02:23:30.006Z,6.01
2023-05-01T02:25:59.756Z,5.92
2023-05-01T02:28:31.306Z,6.01
2023-05-01T02:31:00.227Z,5.99
2023-05-01T02:33:28.249Z,5.85
2023-05-01T02:35:57.188Z,5.74
2023-05-01T02:38:27.149Z,5.68
2023-05-01T02:40:59.237Z,5.66
2023-05-01T02:43:29.642Z,5.73
2023-05-01T02:45:59.720Z,5.58
2023-05-01T02:48:29.502Z,5.51
2023-05-01T02:50:58.182Z,5.48
2023-05-01T02:53:27.668Z,5.54
2023-05-01T02:55:55.944Z,5.55
2023-05-01T02:58:25.227Z,5.53
2023-05-01T03:00:52.886Z,5.56
2023-05-01T03:03:20.625Z,5.57
2023-05-01T03:05:49.005Z,5.62
2023-05-01T03:08:17.153Z,5.56
2023-05-01T03:10:46.238Z,5.57
2023-05-01T03:13:14.356Z,5.65
2023-05-01T03:15:42.687Z,5.70
2023-05-01T03:18:10.373Z,5.78
2023-05-01T03:20:39.465Z,5.81
2023-05-01T03:23:07.681Z,5.81
2023-05-01T03:25:35.951Z,5.84
2023-05-01T03:28:05.103Z,5.80
2023-05-01T03:30:34.788Z,5.74
2023-05-01T03:33:03.201Z,5.79
2023-05-01T03:35:31.083Z,5.74
2023-05-01T03:37:58.898Z,5.71
2023-05-01T03:40:27.783Z,5.74
2023-05-01T03:42:55.430Z,5.70
2023-05-01T03:45:24.937Z,5.65
2023-05-01T03:47:53.519Z,5.65
2023-05-01T03:50:21.283Z,5.72
2023-05-01T03:52:49.027Z,5.73
2023-05-01T03:55:17.351Z,5.72
2023-05-01T03:57:47.120Z,5.70
2023-05-01T04:00:15.227Z,5.79
2023-05-01T04:02:45.489Z,5.76
2023-05-01T04:05:14.324Z,5.71
2023-05-01T04:07:42.684Z,5.72
2023-05-01T04:10:11.286Z,5.77
2023-05-01T04:12:39.058Z,5.81
2023-05-01T04:15:08.500Z,5.81
2023-05-01T04:17:37.884Z,5.91
2023-05-01T04:20:08.189Z,5.97
2023-05-01T04:22:36.362Z,5.97
2023-05-01T04:25:05.174Z,5.96
2023-05-01T04:27:32.889Z,6.03
2023-05-01T04:30:00.737Z,6.06
2023-05-01T04:32:30.083Z,6.12
2023-05-01T04:34:58.014Z,6.16
2023-05-01T04:37:27.131Z,6.20
2023-05-01T04:39:57.051Z,6.22
2023-05-01T04:42:25.366Z,6.26
2023-05-01T04:44:53.674Z,6.27
2023-05-01T04:47:21.321Z,6.26
2023-05-01T04:49:48.948Z,6.34
2023-05-01T04:52:17.335Z,6.43
2023-05-01T04:54:46.411Z,6.38
2023-05-01T04:57:14.142Z,6.40
2023-05-01T04:59:42.973Z,6.40
2023-05-01T05:02:11.047Z,6.51
2023-05-01T05:04:39.265Z,6.55
2023-05-01T05:07:07.374Z,6.60
2023-05-01T05:09:35.452Z,6.55
2023-05-01T05:12:05.835Z,6.62
2023-05-01T05:14:33.525Z,6.67
2023-05-01T05:17:01.317Z,6.72
2023-05-01T05:19:30.233Z,6.77
2023-05-01T05:21:58.021Z,6.80
2023-05-01T05:24:26.037Z,6.82
2023-05-01T05:26:54.621Z,6.86
2023-05-01T05:29:23.667Z,6.89
2023-05-01T05:31:51.341Z,6.94
2023-05-01T05:34:21.014Z,7.11
2023-05-01T05:36:48.666Z,7.12
2023-05-01T05:39:16.375Z,7.25
2023-05-01T05:41:45.510Z,7.29
2023-05-01T05:44:13.260Z,7.36
2023-05-01T05:46:42.753Z,7.46
2023-05-01T05:49:10.802Z,7.48
2023-05-01T05:51:38.527Z,7.53
2023-05-01T05:54:06.339Z,7.56
2023-05-01T05:56:34.565Z,7.62
2023-05-01T05:59:04.513Z,7.63
2023-05-01T06:01:32.333Z,7.65
2023-05-01T06:04:02.560Z,7.70
2023-05-01T06:06:31.774Z,7.80
2023-05-01T06:09:00.603Z,7.85
2023-05-01T06:11:28.357Z,7.91
2023-05-01T06:13:57.312Z,7.98
2023-05-01T06:16:26.022Z,8.01
2023-05-01T06:18:53.668Z,8.12
2023-05-01T06:21:22.740Z,8.17
2023-05-01T06:23:50.897Z,8.26
2023-05-01T06:26:19.046Z,8.28
2023-05-01T06:28:47.065Z,8.31
2023-05-01T06:31:15.381Z,8.41
2023-05-01T06:33:43.157Z,8.49
2023-05-01T06:36:10.853Z,8.60
2023-05-01T06:38:42.542Z,8.72
2023-05-01T06:41:10.341Z,8.82
2023-05-01T06:43:38.398Z,8.80
2023-05-01T06:46:06.112Z,8.91
2023-05-01T06:48:34.130Z,9.07
2023-05-01T06:51:02.277Z,9.31
2023-05-01T06:53:29.909Z,9.26
2023-05-01T06:55:58.979Z,9.34
2023-05-01T06:58:27.906Z,9.39
2023-05-01T07:00:55.777Z,9.48
2023-05-01T07:03:24.244Z,9.58
2023-05-01T07:05:52.275Z,9.69
2023-05-01T07:08:19.989Z,9.78
2023-05-01T07:10:47.826Z,9.90
2023-05-01T07:13:17.351Z,10.04
2023-05-01T07:15:45.306Z,10.28
2023-05-01T07:18:13.363Z,10.19
2023-05-01T07:20:42.005Z,10.27
2023-05-01T07:23:11.860Z,10.31
2023-05-01T07:25:41.279Z,10.44
2023-05-01T07:28:09.098Z,10.48
2023-05-01T07:30:38.848Z,10.55
2023-05-01T07:33:06.923Z,10.65
2023-05-01T07:35:34.685Z,10.69
2023-05-01T07:38:03.585Z,10.70
2023-05-01T07:40:33.582Z,10.74
2023-05-01T07:43:01.830Z,10.82
2023-05-01T07:45:30.112Z,10.96
2023-05-01T07:47:59.659Z,11.09
2023-05-01T07:50:27.974Z,11.24
2023-05-01T07:52:56.010Z,11.42
2023-05-01T07:55:23.999Z,11.40
2023-05-01T07:57:52.374Z,11.42
2023-05-01T08:00:20.548Z,11.43
2023-05-01T08:02:48.502Z,11.46
2023-05-01T08:05:18.809Z,11.44
2023-05-01T08:07:46.543Z,11.56
2023-05-01T08:10:15.309Z,11.73
2023-05-01T08:12:43.374Z,11.85
2023-05-01T08:15:11.226Z,11.89
2023-05-01T08:17:39.025Z,12.03
2023-05-01T08:20:09.375Z,12.16
2023-05-01T08:22:38.624Z,12.43
2023-05-01T08:25:08.071Z,12.48
2023-05-01T08:27:36.512Z,12.54
2023-05-01T08:30:04.859Z,12.64
2023-05-01T08:32:33.958Z,12.82
2023-05-01T08:35:01.844Z,12.84
2023-05-01T08:37:29.528Z,12.95
2023-05-01T08:40:00.031Z,13.13
2023-05-01T08:42:27.657Z,13.12
2023-05-01T08:45:00.840Z,13.12
2023-05-01T08:47:30.549Z,13.20
2023-05-01T08:50:01.022Z,13.16
2023-05-01T08:52:31.392Z,13.42
2023-05-01T08:55:02.170Z,13.52
2023-05-01T08:57:31.856Z,13.81
2023-05-01T09:00:00.201Z,13.80
2023-05-01T09:02:30.619Z,14.00
2023-05-01T09:05:01.820Z,14.21
2023-05-01T09:07:31.275Z,14.19
2023-05-01T09:10:00.604Z,14.18
2023-05-01T09:12:29.505Z,14.28
2023-05-01T09:14:58.343Z,14.40
2023-05-01T09:17:26.354Z,14.53
2023-05-01T09:19:54.740Z,14.69
2023-05-01T09:22:23.048Z,14.87
2023-05-01T09:24:50.845Z,15.07
2023-05-01T09:27:20.372Z,15.12
2023-05-01T09:29:49.498Z,15.30
2023-05-01T09:32:20.516Z,15.42
2023-05-01T09:34:49.052Z,15.58
2023-05-01T09:37:27.981Z,15.67
2023-05-01T09:40:09.570Z,15.85
2023-05-01T09:42:41.495Z,15.95
2023-05-01T09:45:14.235Z,16.07
2023-05-01T09:47:43.059Z,15.95
2023-05-01T09:50:12.572Z,16.11
2023-05-01T09:52:40.445Z,16.20
2023-05-01T09:55:16.692Z,16.22
2023-05-01T09:57:48.006Z,16.39
2023-05-01T10:00:18.552Z,16.57
2023-05-01T10:02:47.765Z,16.64
2023-05-01T10:05:16.824Z,16.70
2023-05-01T10:07:57.902Z,16.91
2023-05-01T10:10:26.239Z,17.00
2023-05-01T10:12:55.698Z,17.14
2023-05-01T10:15:26.747Z,17.30
2023-05-01T10:17:55.461Z,17.21
2023-05-01T10:20:24.487Z,17.27
2023-05-01T10:22:52.389Z,17.24
2023-05-01T10:25:22.051Z,17.27
2023-05-01T10:27:53.277Z,17.39
2023-05-01T10:30:22.794Z,17.43
2023-05-01T10:32:51.183Z,17.46
2023-05-01T10:35:22.597Z,17.60
2023-05-01T10:38:00.153Z,17.67
2023-05-01T10:40:50.006Z,17.76
2023-05-01T10:43:22.128Z,17.88
2023-05-01T10:45:52.272Z,17.87
2023-05-01T10:48:56.277Z,17.41
2023-05-01T10:51:27.530Z,17.41
2023-05-01T10:54:26.009Z,17.78
2023-05-01T10:56:55.011Z,17.90
2023-05-01T10:59:22.829Z,17.91
2023-05-01T11:01:54.409Z,17.80
2023-05-01T11:04:51.256Z,17.94
2023-05-01T11:07:20.470Z,18.18
2023-05-01T11:09:51.219Z,18.29
2023-05-01T11:12:49.861Z,18.46
2023-05-01T11:15:27.696Z,18.70
2023-05-01T11:17:57.566Z,18.68
2023-05-01T11:20:48.383Z,18.60
2023-05-01T11:23:23.842Z,18.23
2023-05-01T11:25:51.815Z,18.04
2023-05-01T11:28:22.642Z,17.91
2023-05-01T11:30:51.000Z,17.77
2023-05-01T11:33:27.480Z,17.78
2023-05-01T11:36:02.826Z,17.67
2023-05-01T11:38:30.578Z,17.62
2023-05-01T11:41:05.303Z,17.62
2023-05-01T11:43:33.269Z,17.61
2023-05-01T11:46:04.385Z,17.69
2023-05-01T11:48:33.938Z,17.71
2023-05-01T11:51:01.734Z,17.87
2023-05-01T11:53:30.338Z,18.09
2023-05-01T11:55:59.453Z,18.36
2023-05-01T11:58:36.703Z,18.43
2023-05-01T12:01:04.547Z,18.52
2023-05-01T12:03:45.025Z,18.73
2023-05-01T12:06:13.734Z,18.92
2023-05-01T12:08:46.336Z,18.69
2023-05-01T12:11:14.509Z,18.88
2023-05-01T12:13:42.803Z,18.85
2023-05-01T12:16:11.889Z,19.15
2023-05-01T12:18:39.699Z,19.30
2023-05-01T12:21:17.427Z,19.35
2023-05-01T12:23:45.199Z,19.32
2023-05-01T12:26:25.403Z,19.54
2023-05-01T12:29:01.469Z,19.47
2023-05-01T12:31:30.946Z,19.60
2023-05-01T12:34:00.141Z,19.58
2023-05-01T12:36:32.015Z,19.63
2023-05-01T12:39:01.678Z,19.62
2023-05-01T12:41:39.709Z,19.63
2023-05-01T12:44:22.268Z,19.46
2023-05-01T12:46:57.812Z,19.44
2023-05-01T12:49:26.459Z,19.44
2023-05-01T12:51:58.040Z,19.29
2023-05-01T12:54:28.521Z,19.31
2023-05-01T12:57:07.044Z,19.24
2023-05-01T12:59:36.787Z,19.12
2023-05-01T13:02:06.305Z,19.13
2023-05-01T13:04:36.202Z,19.34
2023-05-01T13:07:12.358Z,19.43
2023-05-01T13:09:40.763Z,19.64
2023-05-01T13:12:09.844Z,19.77
2023-05-01T13:14:39.424Z,19.55
2023-05-01T13:17:09.270Z,19.55
2023-05-01T13:19:38.254Z,19.45
2023-05-01T13:22:07.483Z,19.41
2023-05-01T13:24:38.294Z,19.73
2023-05-01T13:27:06.485Z,19.63
2023-05-01T13:29:34.710Z,19.55
2023-05-01T13:32:04.539Z,19.73
2023-05-01T13:34:33.948Z,19.77
2023-05-01T13:37:03.177Z,19.77
2023-05-01T13:39:32.640Z,19.92
2023-05-01T13:42:03.774Z,19.90
2023-05-01T13:44:32.091Z,19.93
2023-05-01T13:47:04.083Z,19.94
2023-05-01T13:49:31.980Z,20.03
2023-05-01T13:51:59.631Z,19.99
2023-05-01T13:54:28.061Z,19.85
2023-05-01T13:56:58.161Z,19.87
2023-05-01T13:59:25.861Z,19.96
2023-05-01T14:01:54.959Z,19.90
2023-05-01T14:04:22.685Z,19.98
2023-05-01T14:06:50.887Z,20.17
2023-05-01T14:09:19.345Z,20.26
2023-05-01T14:11:48.850Z,20.29
2023-05-01T14:14:19.672Z,20.32
2023-05-01T14:16:49.488Z,20.34
2023-05-01T14:19:18.362Z,20.35
2023-05-01T14:21:48.058Z,20.37
2023-05-01T14:24:18.281Z,20.48
2023-05-01T14:26:49.195Z,20.59
2023-05-01T14:29:27.954Z,20.65
2023-05-01T14:31:57.089Z,20.76
2023-05-01T14:34:28.635Z,20.74
2023-05-01T14:36:58.879Z,20.64
2023-05-01T14:39:27.386Z,20.36
2023-05-01T14:42:00.641Z,20.40
2023-05-01T14:44:29.705Z,20.52
2023-05-01T14:46:59.081Z,20.50
2023-05-01T14:49:27.327Z,20.46
2023-05-01T14:51:55.401Z,20.32
2023-05-01T14:54:23.699Z,20.29
2023-05-01T14:56:51.379Z,20.33
2023-05-01T14:59:19.568Z,20.32
2023-05-01T15:01:49.469Z,20.39
2023-05-01T15:04:18.785Z,20.11
2023-05-01T15:06:46.741Z,20.20
2023-05-01T15:09:14.730Z,20.08
2023-05-01T15:11:43.120Z,19.87
2023-05-01T15:14:11.209Z,20.09
2023-05-01T15:16:38.991Z,19.99
2023-05-01T15:19:08.484Z,19.90
2023-05-01T15:21:36.729Z,19.94
2023-05-01T15:24:05.829Z,19.77
2023-05-01T15:26:33.493Z,19.72
2023-05-01T15:29:01.634Z,19.80
2023-05-01T15:31:30.580Z,19.74
2023-05-01T15:33:58.946Z,19.64
2023-05-01T15:36:28.097Z,19.58
2023-05-01T15:38:56.175Z,19.49
2023-05-01T15:41:23.924Z,19.33
2023-05-01T15:43:53.034Z,19.33
2023-05-01T15:46:23.333Z,19.27
2023-05-01T15:48:51.330Z,19.26
2023-05-01T15:51:19.666Z,19.33
2023-05-01T15:53:49.072Z,19.30
2023-05-01T15:56:16.787Z,19.19
2023-05-01T15:58:44.995Z,19.26
2023-05-01T16:01:13.372Z,19.29
2023-05-01T16:03:46.744Z,19.27
2023-05-01T16:06:15.683Z,19.33
2023-05-01T16:08:43.966Z,19.26
2023-05-01T16:11:13.834Z,19.31
2023-05-01T16:13:43.088Z,19.27
2023-05-01T16:16:11.769Z,19.41
2023-05-01T16:18:41.823Z,19.30
2023-05-01T16:21:11.427Z,19.20
2023-05-01T16:23:40.133Z,19.09
2023-05-01T16:26:09.073Z,19.04
2023-05-01T16:28:38.170Z,19.04
2023-05-01T16:31:23.589Z,18.95
2023-05-01T16:33:56.556Z,18.95
2023-05-01T16:36:24.780Z,18.86
2023-05-01T16:38:53.624Z,18.85
2023-05-01T16:41:21.932Z,18.81
2023-05-01T16:43:51.342Z,18.80
2023-05-01T16:46:20.253Z,18.80
2023-05-01T16:48:48.583Z,18.80
2023-05-01T16:51:16.891Z,18.70
2023-05-01T16:53:44.563Z,18.74
2023-05-01T16:56:13.210Z,18.78
2023-05-01T16:58:40.864Z,18.74
2023-05-01T17:01:10.265Z,18.69
2023-05-01T17:03:38.126Z,18.64
2023-05-01T17:06:07.101Z,18.68
2023-05-01T17:08:35.282Z,18.71
2023-05-01T17:11:04.586Z,18.58
2023-05-01T17:13:32.852Z,18.52
2023-05-01T17:16:01.099Z,18.44
2023-05-01T17:18:30.170Z,18.44
2023-05-01T17:20:58.284Z,18.42
2023-05-01T17:23:28.016Z,18.37
2023-05-01T17:25:57.216Z,18.30
2023-05-01T17:28:25.358Z,18.24
2023-05-01T17:30:53.064Z,18.18
2023-05-01T17:33:21.058Z,18.17
2023-05-01T17:35:50.383Z,18.09
2023-05-01T17:38:18.561Z,18.01
2023-05-01T17:40:46.206Z,17.90
2023-05-01T17:43:14.708Z,17.85
2023-05-01T17:45:44.272Z,17.76
2023-05-01T17:48:12.605Z,17.69
2023-05-01T17:50:40.281Z,17.56
2023-05-01T17:53:09.912Z,17.47
2023-05-01T17:55:38.905Z,17.31
2023-05-01T17:58:07.360Z,17.25
2023-05-01T18:00:35.195Z,17.14
2023-05-01T18:03:04.316Z,17.03
2023-05-01T18:05:32.113Z,16.94
2023-05-01T18:07:59.828Z,16.85
2023-05-01T18:10:31.480Z,16.83
2023-05-01T18:12:59.630Z,16.90
2023-05-01T18:15:27.375Z,16.96
2023-05-01T18:17:55.507Z,16.87
2023-05-01T18:20:23.689Z,16.82
2023-05-01T18:22:52.190Z,16.76
2023-05-01T18:25:20.001Z,16.66
2023-05-01T18:27:50.318Z,16.55
2023-05-01T18:30:18.064Z,16.39
2023-05-01T18:32:48.277Z,16.29
2023-05-01T18:35:17.403Z,16.20
2023-05-01T18:37:47.262Z,16.20
2023-05-01T18:40:15.090Z,16.18
2023-05-01T18:42:42.753Z,16.09
2023-05-01T18:45:13.259Z,15.96
2023-05-01T18:47:40.835Z,15.96
2023-05-01T18:50:10.798Z,15.88
2023-05-01T18:52:38.552Z,15.78
2023-05-01T18:55:07.558Z,15.77
2023-05-01T18:57:35.940Z,15.80
2023-05-01T19:00:04.184Z,15.76
2023-05-01T19:02:33.352Z,15.71
2023-05-01T19:05:02.270Z,15.63
2023-05-01T19:07:30.049Z,15.59
2023-05-01T19:09:58.285Z,15.60
2023-05-01T19:12:26.250Z,15.54
2023-05-01T19:14:54.628Z,15.51
2023-05-01T19:17:22.504Z,15.48
2023-05-01T19:19:52.275Z,15.44
2023-05-01T19:22:19.934Z,15.34
2023-05-01T19:24:48.807Z,15.29
2023-05-01T19:27:17.976Z,15.24
2023-05-01T19:29:46.259Z,15.19
2023-05-01T19:32:14.201Z,15.06
2023-05-01T19:34:42.548Z,14.98
2023-05-01T19:37:11.657Z,14.89
2023-05-01T19:39:40.445Z,14.76
2023-05-01T19:42:08.145Z,14.75
2023-05-01T19:44:35.829Z,14.76
2023-05-01T19:47:04.707Z,14.63
2023-05-01T19:49:32.928Z,14.65
2023-05-01T19:52:01.013Z,14.68
2023-05-01T19:54:30.117Z,14.66
2023-05-01T19:56:59.134Z,14.59
2023-05-01T19:59:26.909Z,14.45
2023-05-01T20:01:55.207Z,14.44
2023-05-01T20:04:24.139Z,14.42
2023-05-01T20:06:52.834Z,14.40
2023-05-01T20:09:20.567Z,14.33
2023-05-01T20:11:50.000Z,14.31
2023-05-01T20:14:17.702Z,14.26
2023-05-01T20:16:46.525Z,14.21
2023-05-01T20:19:16.314Z,14.20
2023-05-01T20:21:44.538Z,14.16
2023-05-01T20:24:12.246Z,14.18
2023-05-01T20:26:40.969Z,14.25
2023-05-01T20:29:10.495Z,14.21
2023-05-01T20:31:38.384Z,14.17
2023-05-01T20:34:06.101Z,14.19
2023-05-01T20:36:34.571Z,14.23
2023-05-01T20:39:02.227Z,14.19
2023-05-01T20:41:31.352Z,14.15
2023-05-01T20:43:59.102Z,14.12
2023-05-01T20:46:29.507Z,14.09
2023-05-01T20:48:57.319Z,14.12
2023-05-01T20:51:27.633Z,14.05
2023-05-01T20:53:55.267Z,14.02
2023-05-01T20:56:23.643Z,14.02
2023-05-01T20:58:51.741Z,14.04
2023-05-01T21:01:19.610Z,14.05
2023-05-01T21:03:49.299Z,14.05
2023-05-01T21:06:17.209Z,14.01
2023-05-01T21:08:46.051Z,13.99
2023-05-01T21:11:13.775Z,13.96
2023-05-01T21:13:41.418Z,13.92
2023-05-01T21:16:14.882Z,13.90
2023-05-01T21:18:43.774Z,13.88
2023-05-01T21:21:15.350Z,13.89
2023-05-01T21:23:48.266Z,13.87
2023-05-01T21:26:16.558Z,13.86
2023-05-01T21:28:45.695Z,13.79
2023-05-01T21:31:14.829Z,13.75
2023-05-01T21:33:46.155Z,13.68
2023-05-01T21:36:18.379Z,13.63
2023-05-01T21:38:47.331Z,13.61
2023-05-01T21:41:15.463Z,13.56
2023-05-01T21:43:43.912Z,13.44
2023-05-01T21:46:16.495Z,13.52
2023-05-01T21:48:45.841Z,13.55
2023-05-01T21:51:14.991Z,13.54
2023-05-01T21:53:43.531Z,13.51
2023-05-01T21:56:12.080Z,13.45
2023-05-01T21:58:40.591Z,13.40
2023-05-01T22:01:09.327Z,13.34
2023-05-01T22:03:42.113Z,13.38
2023-05-01T22:06:09.974Z,13.39
2023-05-01T22:08:39.075Z,13.39
2023-05-01T22:11:08.621Z,13.38
2023-05-01T22:13:36.438Z,13.33
2023-05-01T22:16:04.862Z,13.28
2023-05-01T22:18:32.645Z,13.28
2023-05-01T22:21:01.738Z,13.29
2023-05-01T22:23:29.454Z,13.26
2023-05-01T22:26:01.600Z,13.27
2023-05-01T22:28:29.524Z,13.26
2023-05-01T22:30:57.236Z,13.27
2023-05-01T22:33:25.348Z,13.21
2023-05-01T22:35:53.406Z,13.20
2023-05-01T22:38:21.077Z,13.18
2023-05-01T22:40:49.141Z,13.23
2023-05-01T22:43:18.425Z,13.19
2023-05-01T22:45:47.502Z,13.18
2023-05-01T22:48:15.347Z,13.21
2023-05-01T22:50:44.189Z,13.18
2023-05-01T22:53:12.011Z,13.19
2023-05-01T22:55:40.312Z,13.19
2023-05-01T22:58:08.077Z,13.15
2023-05-01T23:00:38.071Z,13.07
2023-05-01T23:03:06.276Z,13.08
2023-05-01T23:05:35.362Z,12.95
2023-05-01T23:08:03.201Z,12.95
2023-05-01T23:10:33.536Z,13.03
2023-05-01T23:13:01.695Z,12.95
2023-05-01T23:15:29.579Z,12.96
2023-05-01T23:17:59.090Z,12.96
2023-05-01T23:20:26.984Z,12.99
2023-05-01T23:22:55.185Z,12.91
2023-05-01T23:25:26.317Z,12.97
2023-05-01T23:27:57.746Z,12.94
2023-05-01T23:30:25.679Z,12.96
2023-05-01T23:32:53.696Z,12.86
2023-05-01T23:35:25.077Z,12.87
2023-05-01T23:37:54.125Z,12.88
2023-05-01T23:40:21.994Z,12.82
2023-05-01T23:42:50.728Z,12.74
2023-05-01T23:45:18.685Z,12.71
2023-05-01T23:47:47.833Z,12.66
2023-05-01T23:50:15.924Z,12.64
2023-05-01T23:52:45.679Z,12.61
2023-05-01T23:55:14.338Z,12.56
2023-05-01T23:57:42.566Z,12.55
